sensor_id;sensor_type;location;lat;lon;timestamp;P1;durP1;ratioP1;P2;durP2;ratioP2
47239;SDS011;32978;53.586;10.052;2023-03-08T00:02:13;9.80;;;4.72;;
47239;SDS011;32978;53.586;10.052;2023-03-08T00:07:09;9.45;;;5.00;;
47239;SDS011;32978;53.586;10.052;2023-03-08T00:12:06;9.63;;;5.05;;
47239;SDS011;32978;53.586;10.052;2023-03-08T00:17:03;9.15;;;4.88;;
47239;SDS011;32978;53.586;10.052;2023-03-08T00:22:00;6.93;;;4.80;;
47239;SDS011;32978;53.586;10.052;2023-03-08T00:26:56;7.93;;;5.30;;
47239;SDS011;32978;53.586;10.052;2023-03-08T00:31:53;6.13;;;4.90;;
47239;SDS011;32978;53.586;10.052;2023-03-08T00:36:49;5.40;;;4.78;;
47239;SDS011;32978;53.586;10.052;2023-03-08T00:41:45;5.50;;;4.40;;
47239;SDS011;32978;53.586;10.052;2023-03-08T00:46:42;6.97;;;4.47;;
47239;SDS011;32978;53.586;10.052;2023-03-08T00:51:38;4.80;;;4.40;;
47239;SDS011;32978;53.586;10.052;2023-03-08T00:56:35;9.40;;;5.20;;
47239;SDS011;32978;53.586;10.052;2023-03-08T01:01:31;7.47;;;4.80;;
47239;SDS011;32978;53.586;10.052;2023-03-08T01:06:28;7.53;;;4.55;;
47239;SDS011;32978;53.586;10.052;2023-03-08T01:11:25;9.50;;;4.90;;
47239;SDS011;32978;53.586;10.052;2023-03-08T01:16:23;6.53;;;4.78;;
47239;SDS011;32978;53.586;10.052;2023-03-08T01:21:23;5.65;;;4.80;;
47239;SDS011;32978;53.586;10.052;2023-03-08T01:26:21;7.55;;;5.20;;
47239;SDS011;32978;53.586;10.052;2023-03-08T01:31:20;5.57;;;5.07;;
47239;SDS011;32978;53.586;10.052;2023-03-08T01:36:19;8.73;;;5.25;;
47239;SDS011;32978;53.586;10.052;2023-03-08T01:41:21;5.90;;;5.20;;
47239;SDS011;32978;53.586;10.052;2023-03-08T01:46:30;7.65;;;4.97;;
47239;SDS011;32978;53.586;10.052;2023-03-08T01:56:41;6.18;;;5.10;;
47239;SDS011;32978;53.586;10.052;2023-03-08T02:01:40;6.38;;;5.78;;
47239;SDS011;32978;53.586;10.052;2023-03-08T02:06:36;7.20;;;5.22;;
47239;SDS011;32978;53.586;10.052;2023-03-08T02:11:33;5.80;;;5.18;;
47239;SDS011;32978;53.586;10.052;2023-03-08T02:16:32;8.23;;;5.70;;
47239;SDS011;32978;53.586;10.052;2023-03-08T02:21:29;6.80;;;6.00;;
47239;SDS011;32978;53.586;10.052;2023-03-08T02:26:26;10.85;;;6.47;;
47239;SDS011;32978;53.586;10.052;2023-03-08T02:31:22;6.10;;;5.40;;
47239;SDS011;32978;53.586;10.052;2023-03-08T02:36:19;8.32;;;5.82;;
47239;SDS011;32978;53.586;10.052;2023-03-08T02:41:15;7.68;;;5.85;;
47239;SDS011;32978;53.586;10.052;2023-03-08T02:46:12;7.90;;;6.00;;
47239;SDS011;32978;53.586;10.052;2023-03-08T02:51:09;7.75;;;5.60;;
47239;SDS011;32978;53.586;10.052;2023-03-08T02:56:06;10.07;;;5.88;;
47239;SDS011;32978;53.586;10.052;2023-03-08T03:01:02;9.57;;;6.35;;
47239;SDS011;32978;53.586;10.052;2023-03-08T03:05:59;12.07;;;6.47;;
47239;SDS011;32978;53.586;10.052;2023-03-08T03:10:55;10.02;;;5.90;;
47239;SDS011;32978;53.586;10.052;2023-03-08T03:15:52;6.85;;;6.00;;
47239;SDS011;32978;53.586;10.052;2023-03-08T03:20:48;6.20;;;5.60;;
47239;SDS011;32978;53.586;10.052;2023-03-08T03:25:45;8.60;;;7.25;;
47239;SDS011;32978;53.586;10.052;2023-03-08T03:30:41;9.35;;;6.50;;
47239;SDS011;32978;53.586;10.052;2023-03-08T03:35:38;10.85;;;6.75;;
47239;SDS011;32978;53.586;10.052;2023-03-08T03:40:34;14.15;;;7.35;;
47239;SDS011;32978;53.586;10.052;2023-03-08T03:45:31;7.60;;;6.85;;
47239;SDS011;32978;53.586;10.052;2023-03-08T03:50:27;10.35;;;6.90;;
47239;SDS011;32978;53.586;10.052;2023-03-08T03:55:24;8.07;;;7.00;;
47239;SDS011;32978;53.586;10.052;2023-03-08T04:00:20;7.40;;;6.50;;
47239;SDS011;32978;53.586;10.052;2023-03-08T04:05:17;7.60;;;6.85;;
47239;SDS011;32978;53.586;10.052;2023-03-08T04:10:13;9.73;;;6.50;;
47239;SDS011;32978;53.586;10.052;2023-03-08T04:15:10;7.65;;;6.85;;
47239;SDS011;32978;53.586;10.052;2023-03-08T04:20:07;8.30;;;7.15;;
47239;SDS011;32978;53.586;10.052;2023-03-08T04:25:04;7.47;;;6.28;;
47239;SDS011;32978;53.586;10.052;2023-03-08T04:30:01;9.73;;;6.85;;
47239;SDS011;32978;53.586;10.052;2023-03-08T04:34:57;9.85;;;7.20;;
47239;SDS011;32978;53.586;10.052;2023-03-08T04:39:54;10.95;;;6.88;;
47239;SDS011;32978;53.586;10.052;2023-03-08T04:44:50;8.10;;;6.70;;
47239;SDS011;32978;53.586;10.052;2023-03-08T04:49:47;8.82;;;7.70;;
47239;SDS011;32978;53.586;10.052;2023-03-08T04:54:43;8.75;;;6.57;;
47239;SDS011;32978;53.586;10.052;2023-03-08T04:59:41;6.97;;;6.38;;
47239;SDS011;32978;53.586;10.052;2023-03-08T05:04:38;8.80;;;7.03;;
47239;SDS011;32978;53.586;10.052;2023-03-08T05:09:35;7.75;;;6.95;;
47239;SDS011;32978;53.586;10.052;2023-03-08T05:14:31;9.40;;;7.65;;
47239;SDS011;32978;53.586;10.052;2023-03-08T05:19:28;13.00;;;7.65;;
47239;SDS011;32978;53.586;10.052;2023-03-08T05:24:24;8.65;;;7.28;;
47239;SDS011;32978;53.586;10.052;2023-03-08T05:29:22;8.48;;;7.30;;
47239;SDS011;32978;53.586;10.052;2023-03-08T05:34:18;8.00;;;7.30;;
47239;SDS011;32978;53.586;10.052;2023-03-08T05:39:15;9.55;;;7.55;;
47239;SDS011;32978;53.586;10.052;2023-03-08T05:44:11;9.57;;;7.78;;
47239;SDS011;32978;53.586;10.052;2023-03-08T05:49:08;10.93;;;9.45;;
47239;SDS011;32978;53.586;10.052;2023-03-08T05:54:04;14.23;;;9.25;;
47239;SDS011;32978;53.586;10.052;2023-03-08T05:59:01;15.02;;;10.73;;
47239;SDS011;32978;53.586;10.052;2023-03-08T06:03:58;16.25;;;12.23;;
47239;SDS011;32978;53.586;10.052;2023-03-08T06:08:54;13.15;;;11.02;;
47239;SDS011;32978;53.586;10.052;2023-03-08T06:13:51;14.63;;;11.35;;
47239;SDS011;32978;53.586;10.052;2023-03-08T06:18:48;14.90;;;12.32;;
47239;SDS011;32978;53.586;10.052;2023-03-08T06:23:44;14.32;;;11.40;;
47239;SDS011;32978;53.586;10.052;2023-03-08T06:28:41;16.60;;;12.50;;
47239;SDS011;32978;53.586;10.052;2023-03-08T06:33:37;19.50;;;13.82;;
47239;SDS011;32978;53.586;10.052;2023-03-08T06:38:35;17.73;;;13.25;;
47239;SDS011;32978;53.586;10.052;2023-03-08T06:43:33;17.63;;;11.77;;
47239;SDS011;32978;53.586;10.052;2023-03-08T06:48:30;19.80;;;12.45;;
47239;SDS011;32978;53.586;10.052;2023-03-08T06:53:27;17.20;;;12.75;;
47239;SDS011;32978;53.586;10.052;2023-03-08T06:58:24;15.35;;;11.65;;
47239;SDS011;32978;53.586;10.052;2023-03-08T07:03:20;16.83;;;12.15;;
47239;SDS011;32978;53.586;10.052;2023-03-08T07:08:18;27.75;;;13.90;;
47239;SDS011;32978;53.586;10.052;2023-03-08T07:13:14;19.27;;;12.73;;
47239;SDS011;32978;53.586;10.052;2023-03-08T07:18:10;18.00;;;11.73;;
47239;SDS011;32978;53.586;10.052;2023-03-08T07:23:09;21.27;;;13.43;;
47239;SDS011;32978;53.586;10.052;2023-03-08T07:28:06;20.48;;;13.85;;
47239;SDS011;32978;53.586;10.052;2023-03-08T07:33:02;18.92;;;13.93;;
47239;SDS011;32978;53.586;10.052;2023-03-08T07:37:59;21.52;;;13.50;;
47239;SDS011;32978;53.586;10.052;2023-03-08T07:42:56;24.40;;;14.07;;
47239;SDS011;32978;53.586;10.052;2023-03-08T07:47:52;21.90;;;13.75;;
47239;SDS011;32978;53.586;10.052;2023-03-08T07:52:49;20.35;;;13.88;;
47239;SDS011;32978;53.586;10.052;2023-03-08T07:57:45;24.40;;;13.73;;
47239;SDS011;32978;53.586;10.052;2023-03-08T08:02:42;23.48;;;13.25;;
47239;SDS011;32978;53.586;10.052;2023-03-08T08:07:38;21.92;;;14.40;;
47239;SDS011;32978;53.586;10.052;2023-03-08T08:12:34;20.23;;;14.23;;
47239;SDS011;32978;53.586;10.052;2023-03-08T08:17:31;23.60;;;14.02;;
47239;SDS011;32978;53.586;10.052;2023-03-08T08:22:27;26.52;;;16.10;;
47239;SDS011;32978;53.586;10.052;2023-03-08T08:27:24;23.02;;;14.48;;
47239;SDS011;32978;53.586;10.052;2023-03-08T08:32:20;22.27;;;15.45;;
47239;SDS011;32978;53.586;10.052;2023-03-08T08:37:17;25.45;;;15.55;;
47239;SDS011;32978;53.586;10.052;2023-03-08T08:42:13;19.02;;;13.80;;
47239;SDS011;32978;53.586;10.052;2023-03-08T08:47:09;19.83;;;13.55;;
47239;SDS011;32978;53.586;10.052;2023-03-08T08:52:06;19.95;;;12.95;;
47239;SDS011;32978;53.586;10.052;2023-03-08T08:57:02;19.90;;;11.93;;
47239;SDS011;32978;53.586;10.052;2023-03-08T09:01:59;20.27;;;12.63;;
47239;SDS011;32978;53.586;10.052;2023-03-08T09:06:55;19.23;;;13.35;;
47239;SDS011;32978;53.586;10.052;2023-03-08T09:11:52;24.85;;;16.15;;
47239;SDS011;32978;53.586;10.052;2023-03-08T09:16:51;26.75;;;16.10;;
47239;SDS011;32978;53.586;10.052;2023-03-08T09:21:48;25.52;;;16.25;;
47239;SDS011;32978;53.586;10.052;2023-03-08T09:26:45;21.67;;;15.52;;
47239;SDS011;32978;53.586;10.052;2023-03-08T09:31:42;24.67;;;16.20;;
47239;SDS011;32978;53.586;10.052;2023-03-08T09:36:40;25.92;;;17.70;;
47239;SDS011;32978;53.586;10.052;2023-03-08T09:46:37;22.60;;;14.60;;
47239;SDS011;32978;53.586;10.052;2023-03-08T09:51:41;22.55;;;16.35;;
47239;SDS011;32978;53.586;10.052;2023-03-08T09:56:46;25.80;;;16.52;;
47239;SDS011;32978;53.586;10.052;2023-03-08T10:12:25;25.80;;;16.23;;
47239;SDS011;32978;53.586;10.052;2023-03-08T10:17:32;23.05;;;15.38;;
47239;SDS011;32978;53.586;10.052;2023-03-08T10:22:34;22.52;;;14.95;;
47239;SDS011;32978;53.586;10.052;2023-03-08T10:27:37;19.48;;;13.85;;
47239;SDS011;32978;53.586;10.052;2023-03-08T10:32:35;21.20;;;14.48;;
47239;SDS011;32978;53.586;10.052;2023-03-08T10:37:38;17.05;;;13.45;;
47239;SDS011;32978;53.586;10.052;2023-03-08T10:42:35;18.92;;;13.10;;
47239;SDS011;32978;53.586;10.052;2023-03-08T10:47:33;22.15;;;13.70;;
47239;SDS011;32978;53.586;10.052;2023-03-08T10:52:30;19.65;;;14.15;;
47239;SDS011;32978;53.586;10.052;2023-03-08T10:57:27;18.35;;;13.02;;
47239;SDS011;32978;53.586;10.052;2023-03-08T11:02:24;20.75;;;13.15;;
47239;SDS011;32978;53.586;10.052;2023-03-08T11:07:22;19.35;;;12.23;;
47239;SDS011;32978;53.586;10.052;2023-03-08T11:12:24;15.43;;;11.77;;
47239;SDS011;32978;53.586;10.052;2023-03-08T11:17:26;19.38;;;13.10;;
47239;SDS011;32978;53.586;10.052;2023-03-08T11:28:02;16.00;;;10.80;;
47239;SDS011;32978;53.586;10.052;2023-03-08T11:33:31;15.40;;;11.98;;
47239;SDS011;32978;53.586;10.052;2023-03-08T11:38:58;19.10;;;12.35;;
47239;SDS011;32978;53.586;10.052;2023-03-08T11:44:14;16.05;;;11.75;;
47239;SDS011;32978;53.586;10.052;2023-03-08T11:49:20;17.33;;;11.07;;
47239;SDS011;32978;53.586;10.052;2023-03-08T11:59:41;15.85;;;11.30;;
47239;SDS011;32978;53.586;10.052;2023-03-08T12:09:58;13.55;;;10.27;;
47239;SDS011;32978;53.586;10.052;2023-03-08T12:15:00;16.90;;;11.00;;
47239;SDS011;32978;53.586;10.052;2023-03-08T12:20:03;14.95;;;11.10;;
47239;SDS011;32978;53.586;10.052;2023-03-08T12:30:32;11.63;;;10.43;;
47239;SDS011;32978;53.586;10.052;2023-03-08T12:35:36;15.32;;;11.48;;
47239;SDS011;32978;53.586;10.052;2023-03-08T12:40:48;14.45;;;12.48;;
47239;SDS011;32978;53.586;10.052;2023-03-08T13:01:06;14.75;;;11.40;;
47239;SDS011;32978;53.586;10.052;2023-03-08T13:11:38;15.55;;;13.40;;
47239;SDS011;32978;53.586;10.052;2023-03-08T13:16:39;20.77;;;13.68;;
47239;SDS011;32978;53.586;10.052;2023-03-08T13:21:37;19.48;;;12.45;;
47239;SDS011;32978;53.586;10.052;2023-03-08T13:26:53;14.95;;;12.82;;
47239;SDS011;32978;53.586;10.052;2023-03-08T13:32:04;13.93;;;12.02;;
47239;SDS011;32978;53.586;10.052;2023-03-08T13:37:22;13.75;;;11.18;;
47239;SDS011;32978;53.586;10.052;2023-03-08T13:42:20;14.57;;;11.98;;
47239;SDS011;32978;53.586;10.052;2023-03-08T13:47:25;15.35;;;10.38;;
47239;SDS011;32978;53.586;10.052;2023-03-08T13:52:32;13.77;;;10.02;;
47239;SDS011;32978;53.586;10.052;2023-03-08T14:02:30;11.30;;;10.20;;
47239;SDS011;32978;53.586;10.052;2023-03-08T14:07:29;11.25;;;9.70;;
47239;SDS011;32978;53.586;10.052;2023-03-08T14:12:28;12.25;;;9.57;;
47239;SDS011;32978;53.586;10.052;2023-03-08T14:17:27;11.43;;;10.32;;
47239;SDS011;32978;53.586;10.052;2023-03-08T14:22:27;13.10;;;10.13;;
47239;SDS011;32978;53.586;10.052;2023-03-08T14:32:36;11.18;;;10.05;;
47239;SDS011;32978;53.586;10.052;2023-03-08T14:37:33;12.80;;;10.15;;
47239;SDS011;32978;53.586;10.052;2023-03-08T14:42:43;10.75;;;9.65;;
47239;SDS011;32978;53.586;10.052;2023-03-08T14:47:47;10.82;;;8.93;;
47239;SDS011;32978;53.586;10.052;2023-03-08T14:52:54;9.40;;;8.32;;
47239;SDS011;32978;53.586;10.052;2023-03-08T14:57:55;11.05;;;8.07;;
47239;SDS011;32978;53.586;10.052;2023-03-08T15:02:55;10.90;;;8.55;;
47239;SDS011;32978;53.586;10.052;2023-03-08T15:07:52;8.38;;;7.53;;
47239;SDS011;32978;53.586;10.052;2023-03-08T15:12:50;8.43;;;7.53;;
47239;SDS011;32978;53.586;10.052;2023-03-08T15:17:47;9.85;;;8.45;;
47239;SDS011;32978;53.586;10.052;2023-03-08T15:22:47;7.47;;;6.38;;
47239;SDS011;32978;53.586;10.052;2023-03-08T15:27:47;7.07;;;6.38;;
47239;SDS011;32978;53.586;10.052;2023-03-08T15:32:45;9.10;;;7.30;;
47239;SDS011;32978;53.586;10.052;2023-03-08T15:37:42;8.68;;;7.78;;
47239;SDS011;32978;53.586;10.052;2023-03-08T15:42:39;7.97;;;6.78;;
47239;SDS011;32978;53.586;10.052;2023-03-08T15:47:35;7.20;;;6.60;;
47239;SDS011;32978;53.586;10.052;2023-03-08T15:52:32;8.07;;;6.95;;
47239;SDS011;32978;53.586;10.052;2023-03-08T15:57:28;8.15;;;7.45;;
47239;SDS011;32978;53.586;10.052;2023-03-08T16:02:25;8.77;;;7.15;;
47239;SDS011;32978;53.586;10.052;2023-03-08T16:07:22;9.65;;;7.00;;
47239;SDS011;32978;53.586;10.052;2023-03-08T16:12:18;7.40;;;6.70;;
47239;SDS011;32978;53.586;10.052;2023-03-08T16:17:15;7.43;;;6.78;;
47239;SDS011;32978;53.586;10.052;2023-03-08T16:22:12;10.20;;;6.55;;
47239;SDS011;32978;53.586;10.052;2023-03-08T16:27:09;7.78;;;7.07;;
47239;SDS011;32978;53.586;10.052;2023-03-08T16:32:05;7.60;;;6.90;;
47239;SDS011;32978;53.586;10.052;2023-03-08T16:37:02;10.02;;;6.95;;
47239;SDS011;32978;53.586;10.052;2023-03-08T16:42:00;8.27;;;7.43;;
47239;SDS011;32978;53.586;10.052;2023-03-08T16:46:57;7.78;;;7.05;;
47239;SDS011;32978;53.586;10.052;2023-03-08T16:51:53;7.35;;;6.60;;
47239;SDS011;32978;53.586;10.052;2023-03-08T16:56:50;7.10;;;6.50;;
47239;SDS011;32978;53.586;10.052;2023-03-08T17:01:47;7.78;;;7.07;;
47239;SDS011;32978;53.586;10.052;2023-03-08T17:06:45;6.72;;;6.13;;
47239;SDS011;32978;53.586;10.052;2023-03-08T17:11:41;7.75;;;7.05;;
47239;SDS011;32978;53.586;10.052;2023-03-08T17:16:38;8.90;;;8.05;;
47239;SDS011;32978;53.586;10.052;2023-03-08T17:21:36;7.95;;;7.18;;
47239;SDS011;32978;53.586;10.052;2023-03-08T17:26:34;9.35;;;7.38;;
47239;SDS011;32978;53.586;10.052;2023-03-08T17:31:35;8.07;;;7.37;;
47239;SDS011;32978;53.586;10.052;2023-03-08T17:36:31;8.40;;;7.60;;
47239;SDS011;32978;53.586;10.052;2023-03-08T17:41:28;9.20;;;7.82;;
47239;SDS011;32978;53.586;10.052;2023-03-08T17:46:25;10.95;;;7.60;;
47239;SDS011;32978;53.586;10.052;2023-03-08T17:51:23;8.65;;;7.85;;
47239;SDS011;32978;53.586;10.052;2023-03-08T17:56:22;9.20;;;8.30;;
47239;SDS011;32978;53.586;10.052;2023-03-08T18:01:25;10.07;;;8.65;;
47239;SDS011;32978;53.586;10.052;2023-03-08T18:06:27;8.82;;;7.97;;
47239;SDS011;32978;53.586;10.052;2023-03-08T18:16:22;11.23;;;9.25;;
47239;SDS011;32978;53.586;10.052;2023-03-08T18:21:19;15.32;;;8.73;;
47239;SDS011;32978;53.586;10.052;2023-03-08T18:26:16;10.85;;;8.68;;
47239;SDS011;32978;53.586;10.052;2023-03-08T18:31:14;10.00;;;9.00;;
47239;SDS011;32978;53.586;10.052;2023-03-08T18:36:13;13.15;;;8.88;;
47239;SDS011;32978;53.586;10.052;2023-03-08T18:41:12;9.10;;;8.18;;
47239;SDS011;32978;53.586;10.052;2023-03-08T18:46:20;10.13;;;9.15;;
47239;SDS011;32978;53.586;10.052;2023-03-08T18:51:23;9.75;;;8.82;;
47239;SDS011;32978;53.586;10.052;2023-03-08T18:56:20;9.32;;;8.48;;
47239;SDS011;32978;53.586;10.052;2023-03-08T19:01:17;10.50;;;8.60;;
47239;SDS011;32978;53.586;10.052;2023-03-08T19:06:13;11.95;;;9.50;;
47239;SDS011;32978;53.586;10.052;2023-03-08T19:16:18;10.30;;;9.30;;
47239;SDS011;32978;53.586;10.052;2023-03-08T19:21:17;11.88;;;9.68;;
47239;SDS011;32978;53.586;10.052;2023-03-08T19:26:20;11.93;;;8.95;;
47239;SDS011;32978;53.586;10.052;2023-03-08T19:31:36;11.43;;;9.45;;
47239;SDS011;32978;53.586;10.052;2023-03-08T19:36:35;12.23;;;9.48;;
47239;SDS011;32978;53.586;10.052;2023-03-08T19:41:32;10.52;;;9.38;;
47239;SDS011;32978;53.586;10.052;2023-03-08T19:46:29;10.88;;;9.45;;
47239;SDS011;32978;53.586;10.052;2023-03-08T19:51:25;10.20;;;9.00;;
47239;SDS011;32978;53.586;10.052;2023-03-08T19:56:22;12.50;;;9.68;;
47239;SDS011;32978;53.586;10.052;2023-03-08T20:01:20;11.73;;;9.07;;
47239;SDS011;32978;53.586;10.052;2023-03-08T20:06:24;13.07;;;9.25;;
47239;SDS011;32978;53.586;10.052;2023-03-08T20:11:31;11.40;;;9.93;;
47239;SDS011;32978;53.586;10.052;2023-03-08T20:16:28;14.63;;;9.13;;
47239;SDS011;32978;53.586;10.052;2023-03-08T20:21:26;13.73;;;10.55;;
47239;SDS011;32978;53.586;10.052;2023-03-08T20:26:26;11.43;;;9.20;;
47239;SDS011;32978;53.586;10.052;2023-03-08T20:31:25;12.00;;;9.35;;
47239;SDS011;32978;53.586;10.052;2023-03-08T20:36:22;13.98;;;9.52;;
47239;SDS011;32978;53.586;10.052;2023-03-08T20:41:19;12.70;;;9.68;;
47239;SDS011;32978;53.586;10.052;2023-03-08T20:46:19;13.02;;;9.60;;
47239;SDS011;32978;53.586;10.052;2023-03-08T20:51:17;9.98;;;8.85;;
47239;SDS011;32978;53.586;10.052;2023-03-08T20:56:15;12.40;;;10.25;;
47239;SDS011;32978;53.586;10.052;2023-03-08T21:01:14;13.15;;;9.65;;
47239;SDS011;32978;53.586;10.052;2023-03-08T21:06:13;12.13;;;9.38;;
47239;SDS011;32978;53.586;10.052;2023-03-08T21:11:14;9.93;;;8.18;;
47239;SDS011;32978;53.586;10.052;2023-03-08T21:16:12;10.13;;;8.27;;
47239;SDS011;32978;53.586;10.052;2023-03-08T21:21:17;10.63;;;9.05;;
47239;SDS011;32978;53.586;10.052;2023-03-08T21:26:19;11.18;;;8.60;;
47239;SDS011;32978;53.586;10.052;2023-03-08T21:31:17;10.52;;;8.52;;
47239;SDS011;32978;53.586;10.052;2023-03-08T21:36:15;12.23;;;8.20;;
47239;SDS011;32978;53.586;10.052;2023-03-08T21:41:15;9.02;;;8.02;;
47239;SDS011;32978;53.586;10.052;2023-03-08T21:46:19;10.20;;;8.18;;
47239;SDS011;32978;53.586;10.052;2023-03-08T21:51:16;11.15;;;8.20;;
47239;SDS011;32978;53.586;10.052;2023-03-08T21:56:14;10.85;;;8.40;;
47239;SDS011;32978;53.586;10.052;2023-03-08T22:01:16;12.38;;;8.48;;
47239;SDS011;32978;53.586;10.052;2023-03-08T22:11:10;9.93;;;8.00;;
47239;SDS011;32978;53.586;10.052;2023-03-08T22:16:07;8.98;;;7.78;;
47239;SDS011;32978;53.586;10.052;2023-03-08T22:21:04;9.55;;;8.30;;
47239;SDS011;32978;53.586;10.052;2023-03-08T22:26:00;10.18;;;8.15;;
47239;SDS011;32978;53.586;10.052;2023-03-08T22:30:57;10.35;;;7.72;;
47239;SDS011;32978;53.586;10.052;2023-03-08T22:35:53;8.50;;;7.68;;
47239;SDS011;32978;53.586;10.052;2023-03-08T22:40:49;9.98;;;7.88;;
47239;SDS011;32978;53.586;10.052;2023-03-08T22:45:46;12.48;;;8.25;;
47239;SDS011;32978;53.586;10.052;2023-03-08T22:50:42;11.25;;;8.10;;
47239;SDS011;32978;53.586;10.052;2023-03-08T22:55:44;8.95;;;8.05;;
47239;SDS011;32978;53.586;10.052;2023-03-08T23:00:42;10.35;;;7.55;;
47239;SDS011;32978;53.586;10.052;2023-03-08T23:05:38;11.35;;;7.88;;
47239;SDS011;32978;53.586;10.052;2023-03-08T23:10:35;10.35;;;8.00;;
47239;SDS011;32978;53.586;10.052;2023-03-08T23:15:32;12.15;;;7.60;;
47239;SDS011;32978;53.586;10.052;2023-03-08T23:20:28;9.13;;;8.23;;
47239;SDS011;32978;53.586;10.052;2023-03-08T23:25:25;9.32;;;7.70;;
47239;SDS011;32978;53.586;10.052;2023-03-08T23:30:21;9.60;;;7.72;;
47239;SDS011;32978;53.586;10.052;2023-03-08T23:35:18;9.05;;;7.70;;
47239;SDS011;32978;53.586;10.052;2023-03-08T23:40:14;15.88;;;8.13;;
47239;SDS011;32978;53.586;10.052;2023-03-08T23:45:11;10.65;;;7.80;;
47239;SDS011;32978;53.586;10.052;2023-03-08T23:50:07;11.80;;;8.25;;
47239;SDS011;32978;53.586;10.052;2023-03-08T23:55:04;9.35;;;7.90;;
